YBCG/OOL METAR and TAF weather

Enter ICAO airport designator
Station Type Date Time Source
YBCG METAR 2019/10/21 02:00 UTC NOAA

YBCG 210200Z AUTO 13017KT 9999 // NCD 24/09 Q1024


Station Type Date Time Source
YBCG Decoded METAR 2019/10/21 02:00 UTC NOAA

Coolangatta Airport Aws, Australia (YBCG) 28-10S 153-30E 6M
Oct 20, 2019 - 10:00 PM EDT / 2019.10.21 0200 UTC
Wind: from the SE (130 degrees) at 20 MPH (17 KT):0
Visibility: greater than 7 mile(s):0
Temperature: 75 F (24 C)
Dew Point: 48 F (9 C)
Relative Humidity: 38%
Pressure (altimeter): 30.24 in. Hg (1024 hPa)
ob: YBCG 210200Z AUTO 13017KT 9999 // NCD 24/09 Q1024
cycle: 2

Station Type Date Time Source
YBCG TAF 2019/10/20 18:33 UTC NOAA

TAF YBCG 201701Z 2018/2118 19010KT 9999 SCT030 SCT040
FM202300 14017KT 9999 SCT035
FM210900 21007KT 9999 -SHRA SCT025 SCT040

Example: see airport list